This is the latest recevied weather packets stored in our database for station/object OM8AKX-12. If no packets are shown the sender has not sent any weather packets the latest 10 day(s).
| Time | Temp. | Humidity | Pressure | Rain* | Wind** | Luminosity | Snow |
|---|---|---|---|---|---|---|---|
| 1777757098 | 8.89° C | 59% | 1017.7 hPa | - | - | - | - |
| 1777756192 | 10° C | 56% | 1017.6 hPa | - | - | - | - |
| 1777755298 | 10.56° C | 52% | 1017.6 hPa | - | - | - | - |
| 1777754392 | 11.11° C | 52% | 1017.5 hPa | - | - | - | - |
| 1777753492 | 11.11° C | 50% | 1017.5 hPa | - | - | - | - |
| 1777752592 | 11.67° C | 50% | 1017.4 hPa | - | - | - | - |
| 1777751695 | 11.67° C | 50% | 1017.2 hPa | - | - | - | - |
| 1777750798 | 11.67° C | 51% | 1017.2 hPa | - | - | - | - |
| 1777749898 | 11.67° C | 51% | 1017 hPa | - | - | - | - |
| 1777748998 | 11.67° C | 52% | 1016.9 hPa | - | - | - | - |
| 1777748091 | 11.67° C | 52% | 1016.7 hPa | - | - | - | - |
| 1777747191 | 11.67° C | 51% | 1016.6 hPa | - | - | - | - |
| 1777746291 | 11.67° C | 51% | 1016.4 hPa | - | - | - | - |
| 1777745392 | 12.22° C | 50% | 1016.2 hPa | - | - | - | - |
| 1777744491 | 13.89° C | 45% | 1016.1 hPa | - | - | - | - |
| 1777743592 | 15° C | 41% | 1015.9 hPa | - | - | - | - |
| 1777742691 | 16.11° C | 38% | 1015.8 hPa | - | - | - | - |
| 1777741791 | 17.22° C | 35% | 1015.7 hPa | - | - | - | - |
| 1777740891 | 18.33° C | 34% | 1015.6 hPa | - | - | - | - |
| 1777739992 | 18.89° C | 31% | 1015.6 hPa | - | - | - | - |
| 1777739091 | 20.56° C | 28% | 1015.4 hPa | - | - | - | - |
| 1777738197 | 21.11° C | 26% | 1015.6 hPa | - | - | - | - |
| 1777737291 | 21.67° C | 26% | 1015.7 hPa | - | - | - | - |
| 1777736390 | 22.22° C | 25% | 1015.7 hPa | - | - | - | - |
| 1777735491 | 21.67° C | 26% | 1016 hPa | - | - | - | - |
* Rain since midnight (hover to see other rain measurements)
** Current wind speed in m/s (hover to see current wind gust speed)